sensor_id;sensor_type;location;lat;lon;timestamp;temperature;humidity
11559;DHT22;5835;42.930;25.178;2022-10-04T00:01:47;12.00;99.90
11559;DHT22;5835;42.930;25.178;2022-10-04T00:04:20;12.00;99.90
11559;DHT22;5835;42.930;25.178;2022-10-04T00:06:54;11.90;99.90
11559;DHT22;5835;42.930;25.178;2022-10-04T00:09:25;11.80;99.90
11559;DHT22;5835;42.930;25.178;2022-10-04T00:11:56;11.90;99.90
11559;DHT22;5835;42.930;25.178;2022-10-04T00:14:26;11.90;99.90
11559;DHT22;5835;42.930;25.178;2022-10-04T00:16:56;11.80;99.90
11559;DHT22;5835;42.930;25.178;2022-10-04T00:19:41;11.80;99.90
11559;DHT22;5835;42.930;25.178;2022-10-04T00:22:24;11.70;99.90
11559;DHT22;5835;42.930;25.178;2022-10-04T00:25:16;11.70;99.90
11559;DHT22;5835;42.930;25.178;2022-10-04T00:28:23;11.70;99.90
11559;DHT22;5835;42.930;25.178;2022-10-04T00:31:23;11.60;99.90
11559;DHT22;5835;42.930;25.178;2022-10-04T00:33:55;11.60;99.90
11559;DHT22;5835;42.930;25.178;2022-10-04T00:36:44;11.70;99.90
11559;DHT22;5835;42.930;25.178;2022-10-04T00:39:37;11.60;99.90
11559;DHT22;5835;42.930;25.178;2022-10-04T00:42:35;11.60;99.90
11559;DHT22;5835;42.930;25.178;2022-10-04T00:48:22;11.60;99.90
11559;DHT22;5835;42.930;25.178;2022-10-04T00:50:55;11.60;99.90
11559;DHT22;5835;42.930;25.178;2022-10-04T00:53:37;11.50;99.90
11559;DHT22;5835;42.930;25.178;2022-10-04T00:56:07;11.60;99.90
11559;DHT22;5835;42.930;25.178;2022-10-04T00:58:45;11.50;99.90
11559;DHT22;5835;42.930;25.178;2022-10-04T01:01:18;11.60;99.90
11559;DHT22;5835;42.930;25.178;2022-10-04T01:03:49;11.50;99.90
11559;DHT22;5835;42.930;25.178;2022-10-04T01:06:19;11.40;99.90
11559;DHT22;5835;42.930;25.178;2022-10-04T01:08:49;11.40;99.90
11559;DHT22;5835;42.930;25.178;2022-10-04T01:11:19;11.40;99.90
11559;DHT22;5835;42.930;25.178;2022-10-04T01:13:52;11.40;99.90
11559;DHT22;5835;42.930;25.178;2022-10-04T01:16:26;11.30;99.90
11559;DHT22;5835;42.930;25.178;2022-10-04T01:18:54;11.40;99.90
11559;DHT22;5835;42.930;25.178;2022-10-04T01:21:27;11.40;99.90
11559;DHT22;5835;42.930;25.178;2022-10-04T01:24:25;11.40;99.90
11559;DHT22;5835;42.930;25.178;2022-10-04T01:27:00;11.30;99.90
11559;DHT22;5835;42.930;25.178;2022-10-04T01:29:29;11.50;99.90
11559;DHT22;5835;42.930;25.178;2022-10-04T01:31:59;11.40;99.90
11559;DHT22;5835;42.930;25.178;2022-10-04T01:34:28;11.40;99.90
11559;DHT22;5835;42.930;25.178;2022-10-04T01:36:57;11.40;99.90
11559;DHT22;5835;42.930;25.178;2022-10-04T01:39:28;11.40;99.90
11559;DHT22;5835;42.930;25.178;2022-10-04T01:41:59;11.40;99.90
11559;DHT22;5835;42.930;25.178;2022-10-04T01:44:30;11.40;99.90
11559;DHT22;5835;42.930;25.178;2022-10-04T01:47:03;11.30;99.90
11559;DHT22;5835;42.930;25.178;2022-10-04T01:49:34;11.40;99.90
11559;DHT22;5835;42.930;25.178;2022-10-04T01:52:05;11.30;99.90
11559;DHT22;5835;42.930;25.178;2022-10-04T01:54:37;11.30;99.90
11559;DHT22;5835;42.930;25.178;2022-10-04T01:57:11;11.30;99.90
11559;DHT22;5835;42.930;25.178;2022-10-04T01:59:45;11.30;99.90
11559;DHT22;5835;42.930;25.178;2022-10-04T02:02:19;11.30;99.90
11559;DHT22;5835;42.930;25.178;2022-10-04T02:04:51;11.20;99.90
11559;DHT22;5835;42.930;25.178;2022-10-04T02:07:20;11.30;99.90
11559;DHT22;5835;42.930;25.178;2022-10-04T02:09:54;11.20;99.90
11559;DHT22;5835;42.930;25.178;2022-10-04T02:12:25;11.30;99.90
11559;DHT22;5835;42.930;25.178;2022-10-04T02:14:54;11.40;99.90
11559;DHT22;5835;42.930;25.178;2022-10-04T02:17:25;11.30;99.90
11559;DHT22;5835;42.930;25.178;2022-10-04T02:19:54;11.40;99.90
11559;DHT22;5835;42.930;25.178;2022-10-04T02:22:23;11.50;99.90
11559;DHT22;5835;42.930;25.178;2022-10-04T02:24:54;11.50;99.90
11559;DHT22;5835;42.930;25.178;2022-10-04T02:27:25;11.40;99.90
11559;DHT22;5835;42.930;25.178;2022-10-04T02:29:59;11.40;99.90
11559;DHT22;5835;42.930;25.178;2022-10-04T02:32:30;11.40;99.90
11559;DHT22;5835;42.930;25.178;2022-10-04T02:35:15;11.50;99.90
11559;DHT22;5835;42.930;25.178;2022-10-04T02:37:45;11.40;99.90
11559;DHT22;5835;42.930;25.178;2022-10-04T02:40:17;11.50;99.90
11559;DHT22;5835;42.930;25.178;2022-10-04T02:42:49;11.50;99.90
11559;DHT22;5835;42.930;25.178;2022-10-04T02:45:23;11.50;99.90
11559;DHT22;5835;42.930;25.178;2022-10-04T02:48:01;11.50;99.90
11559;DHT22;5835;42.930;25.178;2022-10-04T02:50:32;11.50;99.90
11559;DHT22;5835;42.930;25.178;2022-10-04T02:53:10;11.50;99.90
11559;DHT22;5835;42.930;25.178;2022-10-04T02:55:40;11.50;99.90
11559;DHT22;5835;42.930;25.178;2022-10-04T02:58:13;11.50;99.90
11559;DHT22;5835;42.930;25.178;2022-10-04T03:00:46;11.50;99.90
11559;DHT22;5835;42.930;25.178;2022-10-04T03:03:18;11.40;99.90
11559;DHT22;5835;42.930;25.178;2022-10-04T03:05:55;11.40;99.90
11559;DHT22;5835;42.930;25.178;2022-10-04T03:08:24;11.40;99.90
11559;DHT22;5835;42.930;25.178;2022-10-04T03:10:54;11.30;99.90
11559;DHT22;5835;42.930;25.178;2022-10-04T03:13:22;11.30;99.90
11559;DHT22;5835;42.930;25.178;2022-10-04T03:15:49;11.20;99.90
11559;DHT22;5835;42.930;25.178;2022-10-04T03:18:18;11.20;99.90
11559;DHT22;5835;42.930;25.178;2022-10-04T03:20:46;11.20;99.90
11559;DHT22;5835;42.930;25.178;2022-10-04T03:23:16;11.30;99.90
11559;DHT22;5835;42.930;25.178;2022-10-04T03:25:54;11.20;99.90
11559;DHT22;5835;42.930;25.178;2022-10-04T03:28:24;11.10;99.90
11559;DHT22;5835;42.930;25.178;2022-10-04T03:30:51;11.20;99.90
11559;DHT22;5835;42.930;25.178;2022-10-04T03:33:21;11.10;99.90
11559;DHT22;5835;42.930;25.178;2022-10-04T03:35:51;11.10;99.90
11559;DHT22;5835;42.930;25.178;2022-10-04T03:38:21;11.10;99.90
11559;DHT22;5835;42.930;25.178;2022-10-04T03:40:55;11.00;99.90
11559;DHT22;5835;42.930;25.178;2022-10-04T03:43:26;11.10;99.90
11559;DHT22;5835;42.930;25.178;2022-10-04T03:45:55;11.10;99.90
11559;DHT22;5835;42.930;25.178;2022-10-04T03:48:30;11.10;99.90
11559;DHT22;5835;42.930;25.178;2022-10-04T03:50:58;11.10;99.90
11559;DHT22;5835;42.930;25.178;2022-10-04T03:53:29;11.00;99.90
11559;DHT22;5835;42.930;25.178;2022-10-04T03:56:07;11.10;99.90
11559;DHT22;5835;42.930;25.178;2022-10-04T03:58:36;11.10;99.90
11559;DHT22;5835;42.930;25.178;2022-10-04T04:01:19;11.10;99.90
11559;DHT22;5835;42.930;25.178;2022-10-04T04:04:01;11.10;99.90
11559;DHT22;5835;42.930;25.178;2022-10-04T04:06:38;11.10;99.90
11559;DHT22;5835;42.930;25.178;2022-10-04T04:09:15;11.20;99.90
11559;DHT22;5835;42.930;25.178;2022-10-04T04:11:48;11.20;99.90
11559;DHT22;5835;42.930;25.178;2022-10-04T04:14:22;11.20;99.90
11559;DHT22;5835;42.930;25.178;2022-10-04T04:16:51;11.30;99.90
11559;DHT22;5835;42.930;25.178;2022-10-04T04:19:22;11.30;99.90
11559;DHT22;5835;42.930;25.178;2022-10-04T04:21:53;11.30;99.90
11559;DHT22;5835;42.930;25.178;2022-10-04T04:24:25;11.40;99.90
11559;DHT22;5835;42.930;25.178;2022-10-04T04:26:58;11.30;99.90
11559;DHT22;5835;42.930;25.178;2022-10-04T04:29:32;11.30;99.90
11559;DHT22;5835;42.930;25.178;2022-10-04T04:32:04;11.30;99.90
11559;DHT22;5835;42.930;25.178;2022-10-04T04:34:49;11.30;99.90
11559;DHT22;5835;42.930;25.178;2022-10-04T04:37:18;11.30;99.90
11559;DHT22;5835;42.930;25.178;2022-10-04T04:39:48;11.40;99.90
11559;DHT22;5835;42.930;25.178;2022-10-04T04:42:26;11.40;99.90
11559;DHT22;5835;42.930;25.178;2022-10-04T04:44:58;11.30;99.90
11559;DHT22;5835;42.930;25.178;2022-10-04T04:47:29;11.30;99.90
11559;DHT22;5835;42.930;25.178;2022-10-04T04:50:06;11.30;99.90
11559;DHT22;5835;42.930;25.178;2022-10-04T04:52:35;11.20;99.90
11559;DHT22;5835;42.930;25.178;2022-10-04T04:55:05;11.20;99.90
11559;DHT22;5835;42.930;25.178;2022-10-04T04:57:34;11.20;99.90
11559;DHT22;5835;42.930;25.178;2022-10-04T05:00:06;11.20;99.90
11559;DHT22;5835;42.930;25.178;2022-10-04T05:02:35;11.20;99.90
11559;DHT22;5835;42.930;25.178;2022-10-04T05:05:15;11.30;99.90
11559;DHT22;5835;42.930;25.178;2022-10-04T05:07:43;11.30;99.90
11559;DHT22;5835;42.930;25.178;2022-10-04T05:10:34;11.30;99.90
11559;DHT22;5835;42.930;25.178;2022-10-04T05:13:04;11.30;99.90
11559;DHT22;5835;42.930;25.178;2022-10-04T05:15:34;11.40;99.90
11559;DHT22;5835;42.930;25.178;2022-10-04T05:18:13;11.30;99.90
11559;DHT22;5835;42.930;25.178;2022-10-04T05:20:46;11.40;99.90
11559;DHT22;5835;42.930;25.178;2022-10-04T05:23:15;11.40;99.90
11559;DHT22;5835;42.930;25.178;2022-10-04T05:25:46;11.50;99.90
11559;DHT22;5835;42.930;25.178;2022-10-04T05:28:16;11.50;99.90
11559;DHT22;5835;42.930;25.178;2022-10-04T05:33:54;11.50;99.90
11559;DHT22;5835;42.930;25.178;2022-10-04T05:39:37;11.50;99.90
11559;DHT22;5835;42.930;25.178;2022-10-04T05:42:12;11.50;99.90
11559;DHT22;5835;42.930;25.178;2022-10-04T05:44:49;11.60;99.90
11559;DHT22;5835;42.930;25.178;2022-10-04T05:47:18;11.50;99.90
11559;DHT22;5835;42.930;25.178;2022-10-04T05:49:50;11.60;99.90
11559;DHT22;5835;42.930;25.178;2022-10-04T05:52:27;11.60;99.90
11559;DHT22;5835;42.930;25.178;2022-10-04T05:55:24;11.60;99.90
11559;DHT22;5835;42.930;25.178;2022-10-04T05:58:16;11.50;99.90
11559;DHT22;5835;42.930;25.178;2022-10-04T06:01:21;11.60;99.90
11559;DHT22;5835;42.930;25.178;2022-10-04T06:04:36;11.60;99.90
11559;DHT22;5835;42.930;25.178;2022-10-04T06:07:14;11.60;99.90
11559;DHT22;5835;42.930;25.178;2022-10-04T06:09:59;11.70;99.90
11559;DHT22;5835;42.930;25.178;2022-10-04T06:12:41;11.70;99.90
11559;DHT22;5835;42.930;25.178;2022-10-04T06:15:44;11.60;99.90
11559;DHT22;5835;42.930;25.178;2022-10-04T06:18:35;11.70;99.90
11559;DHT22;5835;42.930;25.178;2022-10-04T06:21:18;11.80;99.90
11559;DHT22;5835;42.930;25.178;2022-10-04T06:23:52;11.80;99.90
11559;DHT22;5835;42.930;25.178;2022-10-04T06:26:22;11.90;99.90
11559;DHT22;5835;42.930;25.178;2022-10-04T06:28:55;11.80;99.90
11559;DHT22;5835;42.930;25.178;2022-10-04T06:31:55;11.90;99.90
11559;DHT22;5835;42.930;25.178;2022-10-04T06:34:44;11.80;99.90
11559;DHT22;5835;42.930;25.178;2022-10-04T06:37:32;11.90;99.90
11559;DHT22;5835;42.930;25.178;2022-10-04T06:40:24;11.90;99.90
11559;DHT22;5835;42.930;25.178;2022-10-04T06:43:09;11.90;99.90
11559;DHT22;5835;42.930;25.178;2022-10-04T06:45:54;11.90;99.90
11559;DHT22;5835;42.930;25.178;2022-10-04T06:51:41;11.90;99.90
11559;DHT22;5835;42.930;25.178;2022-10-04T06:54:26;12.00;99.90
11559;DHT22;5835;42.930;25.178;2022-10-04T06:57:24;12.00;99.90
11559;DHT22;5835;42.930;25.178;2022-10-04T07:00:07;12.20;99.90
11559;DHT22;5835;42.930;25.178;2022-10-04T07:02:39;12.10;99.90
11559;DHT22;5835;42.930;25.178;2022-10-04T07:05:17;12.20;99.90
11559;DHT22;5835;42.930;25.178;2022-10-04T07:07:52;12.20;99.90
11559;DHT22;5835;42.930;25.178;2022-10-04T07:10:36;12.20;99.90
11559;DHT22;5835;42.930;25.178;2022-10-04T07:13:12;12.10;99.90
11559;DHT22;5835;42.930;25.178;2022-10-04T07:15:47;12.00;99.90
11559;DHT22;5835;42.930;25.178;2022-10-04T07:18:21;12.10;99.90
11559;DHT22;5835;42.930;25.178;2022-10-04T07:20:57;12.10;99.90
11559;DHT22;5835;42.930;25.178;2022-10-04T07:23:30;12.00;99.90
11559;DHT22;5835;42.930;25.178;2022-10-04T07:26:01;12.10;99.90
11559;DHT22;5835;42.930;25.178;2022-10-04T07:28:32;12.10;99.90
11559;DHT22;5835;42.930;25.178;2022-10-04T07:31:22;12.10;99.90
11559;DHT22;5835;42.930;25.178;2022-10-04T07:33:55;12.10;99.90
11559;DHT22;5835;42.930;25.178;2022-10-04T07:36:27;12.10;99.90
11559;DHT22;5835;42.930;25.178;2022-10-04T07:39:00;12.30;99.90
11559;DHT22;5835;42.930;25.178;2022-10-04T07:41:33;12.20;99.90
11559;DHT22;5835;42.930;25.178;2022-10-04T07:44:05;12.20;99.90
11559;DHT22;5835;42.930;25.178;2022-10-04T07:46:47;12.40;99.90
11559;DHT22;5835;42.930;25.178;2022-10-04T07:49:17;12.70;99.90
11559;DHT22;5835;42.930;25.178;2022-10-04T07:52:04;12.90;99.90
11559;DHT22;5835;42.930;25.178;2022-10-04T07:54:37;13.50;99.90
11559;DHT22;5835;42.930;25.178;2022-10-04T07:57:13;13.80;99.90
11559;DHT22;5835;42.930;25.178;2022-10-04T07:59:52;14.20;99.90
11559;DHT22;5835;42.930;25.178;2022-10-04T08:02:30;13.70;99.90
11559;DHT22;5835;42.930;25.178;2022-10-04T08:05:11;14.00;99.90
11559;DHT22;5835;42.930;25.178;2022-10-04T08:07:55;14.20;99.90
11559;DHT22;5835;42.930;25.178;2022-10-04T08:10:34;13.40;99.90
11559;DHT22;5835;42.930;25.178;2022-10-04T08:13:09;13.10;99.90
11559;DHT22;5835;42.930;25.178;2022-10-04T08:15:41;13.60;99.90
11559;DHT22;5835;42.930;25.178;2022-10-04T08:18:24;13.50;99.90
11559;DHT22;5835;42.930;25.178;2022-10-04T08:20:57;13.50;99.90
11559;DHT22;5835;42.930;25.178;2022-10-04T08:23:41;13.70;99.90
11559;DHT22;5835;42.930;25.178;2022-10-04T08:26:24;13.50;99.90
11559;DHT22;5835;42.930;25.178;2022-10-04T08:29:02;13.60;99.90
11559;DHT22;5835;42.930;25.178;2022-10-04T08:32:01;13.50;99.90
11559;DHT22;5835;42.930;25.178;2022-10-04T08:34:47;13.90;99.90
11559;DHT22;5835;42.930;25.178;2022-10-04T08:37:30;14.20;99.90
11559;DHT22;5835;42.930;25.178;2022-10-04T08:40:33;13.90;99.90
11559;DHT22;5835;42.930;25.178;2022-10-04T08:43:22;13.80;99.90
11559;DHT22;5835;42.930;25.178;2022-10-04T08:46:31;13.80;99.90
11559;DHT22;5835;42.930;25.178;2022-10-04T08:49:33;14.00;99.90
11559;DHT22;5835;42.930;25.178;2022-10-04T08:55:36;13.80;99.90
11559;DHT22;5835;42.930;25.178;2022-10-04T08:58:39;13.90;99.90
11559;DHT22;5835;42.930;25.178;2022-10-04T09:04:40;14.50;99.90
11559;DHT22;5835;42.930;25.178;2022-10-04T09:07:37;15.00;99.90
11559;DHT22;5835;42.930;25.178;2022-10-04T09:10:34;15.10;99.90
11559;DHT22;5835;42.930;25.178;2022-10-04T09:13:27;14.90;99.90
11559;DHT22;5835;42.930;25.178;2022-10-04T09:16:13;14.90;99.90
11559;DHT22;5835;42.930;25.178;2022-10-04T09:18:50;14.80;99.90
11559;DHT22;5835;42.930;25.178;2022-10-04T09:21:42;14.40;99.90
11559;DHT22;5835;42.930;25.178;2022-10-04T09:24:42;14.60;99.90
11559;DHT22;5835;42.930;25.178;2022-10-04T09:27:29;14.70;99.90
11559;DHT22;5835;42.930;25.178;2022-10-04T09:30:11;14.10;99.90
11559;DHT22;5835;42.930;25.178;2022-10-04T09:36:04;14.50;99.90
11559;DHT22;5835;42.930;25.178;2022-10-04T09:41:49;15.20;99.90
11559;DHT22;5835;42.930;25.178;2022-10-04T09:47:28;15.90;99.90
11559;DHT22;5835;42.930;25.178;2022-10-04T09:53:41;15.20;99.90
11559;DHT22;5835;42.930;25.178;2022-10-04T09:56:39;15.40;99.90
11559;DHT22;5835;42.930;25.178;2022-10-04T09:59:45;14.70;99.90
11559;DHT22;5835;42.930;25.178;2022-10-04T10:02:44;15.10;99.90
11559;DHT22;5835;42.930;25.178;2022-10-04T10:05:27;15.50;99.90
11559;DHT22;5835;42.930;25.178;2022-10-04T10:08:06;15.30;99.90
11559;DHT22;5835;42.930;25.178;2022-10-04T10:10:41;15.20;99.90
11559;DHT22;5835;42.930;25.178;2022-10-04T10:13:56;15.20;99.90
11559;DHT22;5835;42.930;25.178;2022-10-04T10:16:37;15.50;99.90
11559;DHT22;5835;42.930;25.178;2022-10-04T10:22:22;14.80;99.90
11559;DHT22;5835;42.930;25.178;2022-10-04T10:25:16;14.80;99.90
11559;DHT22;5835;42.930;25.178;2022-10-04T10:28:18;14.90;99.90
11559;DHT22;5835;42.930;25.178;2022-10-04T10:30:59;14.80;99.90
11559;DHT22;5835;42.930;25.178;2022-10-04T10:39:46;14.60;99.90
11559;DHT22;5835;42.930;25.178;2022-10-04T10:45:42;15.00;99.90
11559;DHT22;5835;42.930;25.178;2022-10-04T10:48:15;15.20;99.90
11559;DHT22;5835;42.930;25.178;2022-10-04T10:50:53;15.10;99.90
11559;DHT22;5835;42.930;25.178;2022-10-04T10:56:46;15.50;99.90
11559;DHT22;5835;42.930;25.178;2022-10-04T10:59:50;16.30;99.90
11559;DHT22;5835;42.930;25.178;2022-10-04T11:02:48;15.70;99.90
11559;DHT22;5835;42.930;25.178;2022-10-04T11:06:17;16.40;99.90
11559;DHT22;5835;42.930;25.178;2022-10-04T11:09:13;16.80;99.90
11559;DHT22;5835;42.930;25.178;2022-10-04T11:12:16;16.50;99.90
11559;DHT22;5835;42.930;25.178;2022-10-04T11:15:02;16.30;99.90
11559;DHT22;5835;42.930;25.178;2022-10-04T11:18:02;16.30;99.90
11559;DHT22;5835;42.930;25.178;2022-10-04T11:27:14;16.10;99.90
11559;DHT22;5835;42.930;25.178;2022-10-04T11:30:13;16.20;99.90
11559;DHT22;5835;42.930;25.178;2022-10-04T11:33:30;15.90;99.90
11559;DHT22;5835;42.930;25.178;2022-10-04T11:36:33;16.10;99.90
11559;DHT22;5835;42.930;25.178;2022-10-04T11:39:21;16.10;99.90
11559;DHT22;5835;42.930;25.178;2022-10-04T11:41:55;16.20;99.90
11559;DHT22;5835;42.930;25.178;2022-10-04T11:47:40;16.10;99.90
11559;DHT22;5835;42.930;25.178;2022-10-04T11:50:23;16.50;99.90
11559;DHT22;5835;42.930;25.178;2022-10-04T11:56:14;16.70;99.90
11559;DHT22;5835;42.930;25.178;2022-10-04T11:58:53;15.90;99.90
11559;DHT22;5835;42.930;25.178;2022-10-04T12:01:44;16.10;99.90
11559;DHT22;5835;42.930;25.178;2022-10-04T12:04:47;15.70;99.90
11559;DHT22;5835;42.930;25.178;2022-10-04T12:07:32;15.50;99.90
11559;DHT22;5835;42.930;25.178;2022-10-04T12:10:20;15.30;99.90
11559;DHT22;5835;42.930;25.178;2022-10-04T12:22:02;15.60;99.90
11559;DHT22;5835;42.930;25.178;2022-10-04T12:24:58;15.90;99.90
11559;DHT22;5835;42.930;25.178;2022-10-04T12:30:42;16.20;99.90
11559;DHT22;5835;42.930;25.178;2022-10-04T12:33:20;16.00;99.90
11559;DHT22;5835;42.930;25.178;2022-10-04T12:35:58;16.10;99.90
11559;DHT22;5835;42.930;25.178;2022-10-04T12:38:46;16.30;99.90
11559;DHT22;5835;42.930;25.178;2022-10-04T12:41:29;16.60;99.90
11559;DHT22;5835;42.930;25.178;2022-10-04T12:44:11;16.60;99.90
11559;DHT22;5835;42.930;25.178;2022-10-04T12:46:52;17.00;99.90
11559;DHT22;5835;42.930;25.178;2022-10-04T12:49:28;17.50;99.90
11559;DHT22;5835;42.930;25.178;2022-10-04T12:52:07;16.90;99.90
11559;DHT22;5835;42.930;25.178;2022-10-04T12:54:41;17.40;99.90
11559;DHT22;5835;42.930;25.178;2022-10-04T12:57:31;17.30;99.90
11559;DHT22;5835;42.930;25.178;2022-10-04T13:00:13;16.90;99.90
11559;DHT22;5835;42.930;25.178;2022-10-04T13:03:01;16.70;99.90
11559;DHT22;5835;42.930;25.178;2022-10-04T13:05:36;16.10;99.90
11559;DHT22;5835;42.930;25.178;2022-10-04T13:08:29;16.20;99.90
11559;DHT22;5835;42.930;25.178;2022-10-04T13:11:16;17.20;99.90
11559;DHT22;5835;42.930;25.178;2022-10-04T13:16:52;16.50;99.90
11559;DHT22;5835;42.930;25.178;2022-10-04T13:19:28;16.60;99.90
11559;DHT22;5835;42.930;25.178;2022-10-04T13:22:22;16.40;99.90
11559;DHT22;5835;42.930;25.178;2022-10-04T13:25:07;16.40;99.90
11559;DHT22;5835;42.930;25.178;2022-10-04T13:27:45;16.80;99.90
11559;DHT22;5835;42.930;25.178;2022-10-04T13:30:21;16.80;99.90
11559;DHT22;5835;42.930;25.178;2022-10-04T13:32:56;16.70;99.90
11559;DHT22;5835;42.930;25.178;2022-10-04T13:35:30;16.10;99.90
11559;DHT22;5835;42.930;25.178;2022-10-04T13:38:40;16.10;99.90
11559;DHT22;5835;42.930;25.178;2022-10-04T13:41:23;16.20;99.90
11559;DHT22;5835;42.930;25.178;2022-10-04T13:44:23;16.30;99.90
11559;DHT22;5835;42.930;25.178;2022-10-04T13:47:14;16.30;99.90
11559;DHT22;5835;42.930;25.178;2022-10-04T13:49:59;16.10;99.90
11559;DHT22;5835;42.930;25.178;2022-10-04T13:52:39;16.20;99.90
11559;DHT22;5835;42.930;25.178;2022-10-04T13:55:31;16.00;99.90
11559;DHT22;5835;42.930;25.178;2022-10-04T13:58:32;15.60;99.90
11559;DHT22;5835;42.930;25.178;2022-10-04T14:01:20;15.90;99.90
11559;DHT22;5835;42.930;25.178;2022-10-04T14:04:05;16.00;99.90
11559;DHT22;5835;42.930;25.178;2022-10-04T14:10:02;16.10;99.90
11559;DHT22;5835;42.930;25.178;2022-10-04T14:15:56;16.00;99.90
11559;DHT22;5835;42.930;25.178;2022-10-04T14:18:48;15.90;99.90
11559;DHT22;5835;42.930;25.178;2022-10-04T14:21:44;16.10;99.90
11559;DHT22;5835;42.930;25.178;2022-10-04T14:24:54;15.90;99.90
11559;DHT22;5835;42.930;25.178;2022-10-04T14:27:45;16.00;99.90
11559;DHT22;5835;42.930;25.178;2022-10-04T14:30:20;15.90;99.90
11559;DHT22;5835;42.930;25.178;2022-10-04T14:35:47;14.20;99.90
11559;DHT22;5835;42.930;25.178;2022-10-04T14:38:47;13.60;99.90
11559;DHT22;5835;42.930;25.178;2022-10-04T14:41:51;13.20;99.90
11559;DHT22;5835;42.930;25.178;2022-10-04T14:44:53;12.60;99.90
11559;DHT22;5835;42.930;25.178;2022-10-04T14:50:26;12.30;99.90
11559;DHT22;5835;42.930;25.178;2022-10-04T14:53:09;12.20;99.90
11559;DHT22;5835;42.930;25.178;2022-10-04T14:56:15;12.20;99.90
11559;DHT22;5835;42.930;25.178;2022-10-04T14:58:57;12.40;99.90
11559;DHT22;5835;42.930;25.178;2022-10-04T15:01:27;12.80;99.90
11559;DHT22;5835;42.930;25.178;2022-10-04T15:04:18;13.30;99.90
11559;DHT22;5835;42.930;25.178;2022-10-04T15:06:59;13.60;99.90
11559;DHT22;5835;42.930;25.178;2022-10-04T15:09:52;13.60;99.90
11559;DHT22;5835;42.930;25.178;2022-10-04T15:12:42;13.90;99.90
11559;DHT22;5835;42.930;25.178;2022-10-04T15:15:31;14.30;99.90
11559;DHT22;5835;42.930;25.178;2022-10-04T15:18:04;14.40;99.90
11559;DHT22;5835;42.930;25.178;2022-10-04T15:20:49;13.90;99.90
11559;DHT22;5835;42.930;25.178;2022-10-04T15:23:31;13.90;99.90
11559;DHT22;5835;42.930;25.178;2022-10-04T15:26:35;14.00;99.90
11559;DHT22;5835;42.930;25.178;2022-10-04T15:29:05;13.80;99.90
11559;DHT22;5835;42.930;25.178;2022-10-04T15:31:48;13.80;99.90
11559;DHT22;5835;42.930;25.178;2022-10-04T15:34:28;13.70;99.90
11559;DHT22;5835;42.930;25.178;2022-10-04T15:37:20;13.60;99.90
11559;DHT22;5835;42.930;25.178;2022-10-04T15:40:14;13.50;99.90
11559;DHT22;5835;42.930;25.178;2022-10-04T15:43:12;13.50;99.90
11559;DHT22;5835;42.930;25.178;2022-10-04T15:48:52;13.20;99.90
11559;DHT22;5835;42.930;25.178;2022-10-04T15:51:37;13.20;99.90
11559;DHT22;5835;42.930;25.178;2022-10-04T15:54:30;13.20;99.90
11559;DHT22;5835;42.930;25.178;2022-10-04T15:57:00;13.00;99.90
11559;DHT22;5835;42.930;25.178;2022-10-04T15:59:41;12.70;99.90
11559;DHT22;5835;42.930;25.178;2022-10-04T16:05:33;12.50;99.90
11559;DHT22;5835;42.930;25.178;2022-10-04T16:08:28;12.50;99.90
11559;DHT22;5835;42.930;25.178;2022-10-04T16:11:13;12.50;99.90
11559;DHT22;5835;42.930;25.178;2022-10-04T16:13:58;12.50;99.90
11559;DHT22;5835;42.930;25.178;2022-10-04T16:16:49;12.50;99.90
11559;DHT22;5835;42.930;25.178;2022-10-04T16:19:46;12.30;99.90
11559;DHT22;5835;42.930;25.178;2022-10-04T16:22:17;12.10;99.90
11559;DHT22;5835;42.930;25.178;2022-10-04T16:24:46;11.90;99.90
11559;DHT22;5835;42.930;25.178;2022-10-04T16:27:41;11.80;99.90
11559;DHT22;5835;42.930;25.178;2022-10-04T16:30:23;11.70;99.90
11559;DHT22;5835;42.930;25.178;2022-10-04T16:33:13;11.60;99.90
11559;DHT22;5835;42.930;25.178;2022-10-04T16:35:59;11.50;99.90
11559;DHT22;5835;42.930;25.178;2022-10-04T16:38:33;11.50;99.90
11559;DHT22;5835;42.930;25.178;2022-10-04T16:41:09;11.40;99.90
11559;DHT22;5835;42.930;25.178;2022-10-04T16:43:48;11.30;99.90
11559;DHT22;5835;42.930;25.178;2022-10-04T16:46:22;11.30;99.90
11559;DHT22;5835;42.930;25.178;2022-10-04T16:48:53;11.20;99.90
11559;DHT22;5835;42.930;25.178;2022-10-04T16:51:46;11.20;99.90
11559;DHT22;5835;42.930;25.178;2022-10-04T16:57:27;11.20;99.90
11559;DHT22;5835;42.930;25.178;2022-10-04T16:59:56;11.30;99.90
11559;DHT22;5835;42.930;25.178;2022-10-04T17:02:42;11.30;99.90
11559;DHT22;5835;42.930;25.178;2022-10-04T17:05:33;11.40;99.90
11559;DHT22;5835;42.930;25.178;2022-10-04T17:08:22;11.30;99.90
11559;DHT22;5835;42.930;25.178;2022-10-04T17:11:27;11.20;99.90
11559;DHT22;5835;42.930;25.178;2022-10-04T17:13:59;11.10;99.90
11559;DHT22;5835;42.930;25.178;2022-10-04T17:16:35;10.90;99.90
11559;DHT22;5835;42.930;25.178;2022-10-04T17:19:16;10.90;99.90
11559;DHT22;5835;42.930;25.178;2022-10-04T17:21:55;10.90;99.90
11559;DHT22;5835;42.930;25.178;2022-10-04T17:24:36;10.90;99.90
11559;DHT22;5835;42.930;25.178;2022-10-04T17:27:24;10.90;99.90
11559;DHT22;5835;42.930;25.178;2022-10-04T17:30:02;10.90;99.90
11559;DHT22;5835;42.930;25.178;2022-10-04T17:32:38;11.10;99.90
11559;DHT22;5835;42.930;25.178;2022-10-04T17:35:30;11.10;99.90
11559;DHT22;5835;42.930;25.178;2022-10-04T17:38:14;11.20;99.90
11559;DHT22;5835;42.930;25.178;2022-10-04T17:40:53;11.10;99.90
11559;DHT22;5835;42.930;25.178;2022-10-04T17:43:28;11.10;99.90
11559;DHT22;5835;42.930;25.178;2022-10-04T17:46:08;11.00;99.90
11559;DHT22;5835;42.930;25.178;2022-10-04T17:48:43;11.00;99.90
11559;DHT22;5835;42.930;25.178;2022-10-04T17:51:42;10.90;99.90
11559;DHT22;5835;42.930;25.178;2022-10-04T17:54:31;10.90;99.90
11559;DHT22;5835;42.930;25.178;2022-10-04T17:57:23;10.90;99.90
11559;DHT22;5835;42.930;25.178;2022-10-04T17:59:57;10.90;99.90
11559;DHT22;5835;42.930;25.178;2022-10-04T18:02:57;11.00;99.90
11559;DHT22;5835;42.930;25.178;2022-10-04T18:05:28;11.00;99.90
11559;DHT22;5835;42.930;25.178;2022-10-04T18:07:59;11.00;99.90
11559;DHT22;5835;42.930;25.178;2022-10-04T18:10:30;11.20;99.90
11559;DHT22;5835;42.930;25.178;2022-10-04T18:13:03;11.20;99.90
11559;DHT22;5835;42.930;25.178;2022-10-04T18:15:36;11.30;99.90
11559;DHT22;5835;42.930;25.178;2022-10-04T18:18:14;11.20;99.90
11559;DHT22;5835;42.930;25.178;2022-10-04T18:21:02;11.20;99.90
11559;DHT22;5835;42.930;25.178;2022-10-04T18:23:32;11.30;99.90
11559;DHT22;5835;42.930;25.178;2022-10-04T18:26:05;11.10;99.90
11559;DHT22;5835;42.930;25.178;2022-10-04T18:28:37;11.10;99.90
11559;DHT22;5835;42.930;25.178;2022-10-04T18:31:19;11.30;99.90
11559;DHT22;5835;42.930;25.178;2022-10-04T18:33:51;11.20;99.90